createdAt,value
2022-09-23T00:01:15.008Z,8.85
2022-09-23T00:03:47.353Z,7.77
2022-09-23T00:06:23.641Z,8.00
2022-09-23T00:08:51.930Z,7.60
2022-09-23T00:11:23.046Z,7.37
2022-09-23T00:13:54.593Z,7.00
2022-09-23T00:16:26.346Z,7.43
2022-09-23T00:18:53.339Z,6.33
2022-09-23T00:21:22.052Z,7.40
2022-09-23T00:23:49.422Z,6.33
2022-09-23T00:26:19.404Z,7.00
2022-09-23T00:28:47.415Z,7.10
2022-09-23T00:31:22.259Z,7.17
2022-09-23T00:33:54.975Z,7.13
2022-09-23T00:36:21.950Z,7.07
2022-09-23T00:38:48.861Z,6.67
2022-09-23T00:41:16.166Z,7.40
2022-09-23T00:43:48.937Z,7.00
2022-09-23T00:46:40.421Z,7.40
2022-09-23T00:49:23.125Z,8.23
2022-09-23T00:51:56.733Z,7.50
2022-09-23T00:54:27.372Z,7.87
2022-09-23T00:56:55.696Z,7.67
2022-09-23T00:59:24.492Z,7.67
2022-09-23T01:01:54.893Z,7.83
2022-09-23T01:04:27.342Z,8.03
2022-09-23T01:06:54.285Z,8.70
2022-09-23T01:09:23.000Z,8.13
2022-09-23T01:12:35.427Z,8.10
2022-09-23T01:15:49.656Z,8.37
2022-09-23T01:18:32.871Z,8.00
2022-09-23T01:21:29.854Z,8.30
2022-09-23T01:24:11.711Z,8.07
2022-09-23T01:27:02.852Z,7.67
2022-09-23T01:30:08.430Z,7.33
2022-09-23T01:33:09.133Z,7.30
2022-09-23T01:35:43.684Z,7.40
2022-09-23T01:38:34.879Z,7.83
2022-09-23T01:41:15.471Z,8.40
2022-09-23T01:44:08.122Z,8.03
2022-09-23T01:46:54.975Z,7.77
2022-09-23T01:49:35.435Z,7.70
2022-09-23T01:52:30.045Z,7.90
2022-09-23T01:55:16.662Z,7.43
2022-09-23T01:57:52.936Z,6.80
2022-09-23T02:00:23.558Z,7.50
2022-09-23T02:03:01.647Z,7.77
2022-09-23T02:05:37.589Z,7.53
2022-09-23T02:08:20.707Z,7.27
2022-09-23T02:10:59.780Z,7.50
2022-09-23T02:14:07.813Z,7.43
2022-09-23T02:16:47.578Z,6.97
2022-09-23T02:19:29.732Z,6.83
2022-09-23T02:22:23.753Z,6.57
2022-09-23T02:24:51.229Z,6.60
2022-09-23T02:27:33.310Z,7.10
2022-09-23T02:30:18.985Z,6.50
2022-09-23T02:33:12.137Z,6.80
2022-09-23T02:35:53.064Z,7.47
2022-09-23T02:38:46.669Z,6.70
2022-09-23T02:41:30.489Z,6.50
2022-09-23T02:44:08.264Z,7.47
2022-09-23T02:46:36.064Z,7.17
2022-09-23T02:49:23.248Z,7.30
2022-09-23T02:51:51.246Z,7.67
2022-09-23T02:54:25.707Z,9.07
2022-09-23T02:56:53.567Z,9.60
2022-09-23T02:59:23.098Z,10.03
2022-09-23T03:02:14.156Z,10.37
2022-09-23T03:04:52.059Z,9.83
2022-09-23T03:07:40.217Z,8.20
2022-09-23T03:10:24.823Z,7.73
2022-09-23T03:13:30.487Z,7.67
2022-09-23T03:16:17.166Z,7.50
2022-09-23T03:18:59.017Z,8.00
2022-09-23T03:21:37.718Z,7.23
2022-09-23T03:24:09.138Z,7.03
2022-09-23T03:26:39.748Z,7.80
2022-09-23T03:29:09.477Z,7.23
2022-09-23T03:31:40.152Z,8.50
2022-09-23T03:34:16.562Z,23.37
2022-09-23T03:37:00.571Z,39.23
2022-09-23T03:39:42.301Z,30.37
2022-09-23T03:42:17.180Z,26.33
2022-09-23T03:44:46.149Z,13.80
2022-09-23T03:47:16.204Z,8.00
2022-09-23T03:49:48.487Z,6.90
2022-09-23T03:52:17.170Z,5.73
2022-09-23T03:54:44.250Z,6.03
2022-09-23T03:57:12.800Z,6.80
2022-09-23T03:59:39.905Z,6.50
2022-09-23T04:02:07.953Z,6.53
2022-09-23T04:04:41.109Z,6.60
2022-09-23T04:07:08.304Z,6.90
2022-09-23T04:09:35.772Z,6.97
2022-09-23T04:12:03.956Z,6.97
2022-09-23T04:14:30.959Z,7.40
2022-09-23T04:16:58.253Z,7.30
2022-09-23T04:19:25.598Z,6.77
2022-09-23T04:21:53.765Z,6.67
2022-09-23T04:24:20.908Z,6.37
2022-09-23T04:26:52.472Z,6.43
2022-09-23T04:29:20.276Z,6.53
2022-09-23T04:31:47.574Z,6.20
2022-09-23T04:34:16.054Z,6.20
2022-09-23T04:36:45.184Z,6.73
2022-09-23T04:39:12.896Z,6.30
2022-09-23T04:41:39.761Z,6.87
2022-09-23T04:44:06.681Z,7.50
2022-09-23T04:46:33.690Z,6.77
2022-09-23T04:49:00.707Z,6.67
2022-09-23T04:51:27.781Z,6.97
2022-09-23T04:53:56.081Z,6.90
2022-09-23T04:56:26.974Z,6.67
2022-09-23T04:58:54.908Z,6.40
2022-09-23T05:01:26.879Z,6.40
2022-09-23T05:04:02.613Z,6.90
2022-09-23T05:06:31.565Z,6.53
2022-09-23T05:08:59.597Z,6.20
2022-09-23T05:11:29.932Z,6.63
2022-09-23T05:13:56.939Z,6.33
2022-09-23T05:16:24.972Z,6.90
2022-09-23T05:18:52.675Z,5.80
2022-09-23T05:21:22.822Z,6.50
2022-09-23T05:23:55.616Z,5.87
2022-09-23T05:26:25.784Z,6.37
2022-09-23T05:28:54.071Z,6.50
2022-09-23T05:31:24.511Z,6.33
2022-09-23T05:34:01.654Z,5.97
2022-09-23T05:36:34.459Z,6.80
2022-09-23T05:39:04.885Z,6.10
2022-09-23T05:41:31.778Z,6.73
2022-09-23T05:43:59.755Z,6.00
2022-09-23T05:46:30.154Z,6.83
2022-09-23T05:49:02.444Z,6.60
2022-09-23T05:51:35.935Z,6.83
2022-09-23T05:54:04.600Z,6.27
2022-09-23T05:56:33.543Z,7.60
2022-09-23T05:59:02.322Z,6.90
2022-09-23T06:01:35.645Z,7.20
2022-09-23T06:04:06.093Z,7.10
2022-09-23T06:06:40.111Z,7.70
2022-09-23T06:09:11.270Z,8.03
2022-09-23T06:11:38.286Z,8.07
2022-09-23T06:14:05.623Z,9.50
2022-09-23T06:16:35.274Z,10.07
2022-09-23T06:19:06.510Z,10.43
2022-09-23T06:21:39.585Z,10.83
2022-09-23T06:24:07.891Z,9.40
2022-09-23T06:26:37.992Z,9.40
2022-09-23T06:29:11.493Z,10.40
2022-09-23T06:31:40.709Z,10.73
2022-09-23T06:34:13.192Z,10.97
2022-09-23T06:36:44.994Z,12.50
2022-09-23T06:39:16.357Z,11.40
2022-09-23T06:41:45.370Z,11.03
2022-09-23T06:44:16.034Z,11.10
2022-09-23T06:46:43.826Z,11.97
2022-09-23T06:49:13.377Z,12.13
2022-09-23T06:51:41.152Z,11.70
2022-09-23T06:54:08.316Z,10.83
2022-09-23T06:56:39.155Z,12.83
2022-09-23T06:59:09.314Z,13.70
2022-09-23T07:01:36.352Z,12.90
2022-09-23T07:04:03.689Z,12.93
2022-09-23T07:06:30.618Z,14.47
2022-09-23T07:08:57.486Z,12.37
2022-09-23T07:11:24.452Z,12.35
2022-09-23T07:13:51.328Z,11.53
2022-09-23T07:16:18.694Z,11.73
2022-09-23T07:18:45.808Z,11.93
2022-09-23T07:21:18.113Z,11.90
2022-09-23T07:23:48.211Z,11.17
2022-09-23T07:26:17.010Z,11.93
2022-09-23T07:28:44.233Z,13.03
2022-09-23T07:31:14.991Z,12.17
2022-09-23T07:33:45.625Z,12.48
2022-09-23T07:36:17.272Z,14.20
2022-09-23T07:38:45.928Z,22.85
2022-09-23T07:41:17.783Z,20.80
2022-09-23T07:43:46.958Z,25.75
2022-09-23T07:46:17.847Z,19.63
2022-09-23T07:48:45.971Z,27.83
2022-09-23T07:51:20.555Z,17.50
2022-09-23T07:53:53.193Z,12.32
2022-09-23T07:56:22.418Z,12.00
2022-09-23T07:59:00.133Z,11.80
2022-09-23T08:01:40.496Z,11.18
2022-09-23T08:04:14.696Z,10.77
2022-09-23T08:07:00.705Z,9.77
2022-09-23T08:09:41.422Z,9.50
2022-09-23T08:12:15.227Z,9.63
2022-09-23T08:14:43.755Z,10.20
2022-09-23T08:17:13.094Z,10.02
2022-09-23T08:19:39.994Z,9.55
2022-09-23T08:22:07.022Z,10.10
2022-09-23T08:24:33.901Z,8.38
2022-09-23T08:27:01.454Z,7.65
2022-09-23T08:29:28.407Z,8.23
2022-09-23T08:31:55.555Z,9.43
2022-09-23T08:34:23.832Z,8.38
2022-09-23T08:36:52.522Z,8.95
2022-09-23T08:39:21.474Z,8.85
2022-09-23T08:42:28.500Z,8.27
2022-09-23T08:45:00.848Z,8.95
2022-09-23T08:47:58.313Z,8.45
2022-09-23T08:50:37.142Z,6.47
2022-09-23T08:53:13.100Z,8.30
2022-09-23T08:55:46.995Z,7.05
2022-09-23T08:59:08.213Z,6.07
2022-09-23T09:01:44.930Z,4.88
2022-09-23T09:04:28.501Z,6.78
2022-09-23T09:07:34.730Z,9.30
2022-09-23T09:10:16.070Z,5.22
2022-09-23T09:13:07.474Z,4.22
2022-09-23T09:16:15.209Z,4.60
2022-09-23T09:18:56.083Z,5.00
2022-09-23T09:21:37.207Z,5.68
2022-09-23T09:24:17.396Z,5.65
2022-09-23T09:26:44.317Z,5.03
2022-09-23T09:32:33.752Z,6.80
2022-09-23T09:35:11.212Z,16.05
2022-09-23T09:37:46.992Z,11.23
2022-09-23T09:40:17.078Z,7.88
2022-09-23T09:42:49.733Z,6.57
2022-09-23T09:45:30.145Z,5.15
2022-09-23T09:48:29.438Z,3.42
2022-09-23T09:50:56.394Z,3.20
2022-09-23T09:53:26.806Z,2.80
2022-09-23T09:56:04.945Z,2.13
2022-09-23T09:58:49.204Z,2.00
2022-09-23T10:01:25.697Z,2.10
2022-09-23T10:03:56.981Z,2.88
2022-09-23T10:06:32.717Z,3.58
2022-09-23T10:09:10.667Z,2.65
2022-09-23T10:11:39.521Z,2.70
2022-09-23T10:14:17.576Z,2.80
2022-09-23T10:16:47.169Z,2.28
2022-09-23T10:19:25.971Z,2.47
2022-09-23T10:21:57.036Z,2.08
2022-09-23T10:24:28.219Z,1.67
2022-09-23T10:27:08.562Z,1.48
2022-09-23T10:29:48.229Z,1.30
2022-09-23T10:32:37.547Z,1.30
2022-09-23T10:35:08.920Z,1.30
2022-09-23T10:37:59.311Z,1.10
2022-09-23T10:40:55.381Z,1.00
2022-09-23T10:44:19.802Z,0.82
2022-09-23T10:47:25.717Z,0.80
2022-09-23T10:50:14.802Z,1.00
2022-09-23T10:52:49.056Z,0.90
2022-09-23T10:55:54.584Z,0.80
2022-09-23T10:59:06.712Z,0.95
2022-09-23T11:01:58.291Z,0.70
2022-09-23T11:04:41.768Z,1.08
2022-09-23T11:07:37.281Z,0.90
2022-09-23T11:10:35.258Z,0.95
2022-09-23T11:14:05.233Z,0.80
2022-09-23T11:17:13.771Z,0.70
2022-09-23T11:20:09.751Z,0.70
2022-09-23T11:22:53.078Z,0.60
2022-09-23T11:26:00.243Z,0.70
2022-09-23T11:29:05.088Z,0.65
2022-09-23T11:31:47.348Z,0.90
2022-09-23T11:35:02.645Z,0.88
2022-09-23T11:37:41.117Z,0.93
2022-09-23T11:40:33.626Z,0.88
2022-09-23T11:43:15.816Z,0.98
2022-09-23T11:45:47.863Z,1.10
2022-09-23T11:48:30.734Z,0.90
2022-09-23T11:51:06.496Z,0.80
2022-09-23T11:53:45.121Z,0.90
2022-09-23T11:56:33.383Z,1.00
2022-09-23T11:59:52.279Z,1.10
2022-09-23T12:02:33.847Z,1.00
2022-09-23T12:05:08.573Z,1.08
2022-09-23T12:07:56.755Z,1.00
2022-09-23T12:11:09.730Z,0.88
2022-09-23T12:13:59.622Z,0.90
2022-09-23T12:17:22.858Z,0.70
2022-09-23T12:20:21.784Z,0.80
2022-09-23T12:23:19.328Z,1.08
2022-09-23T12:26:05.976Z,0.85
2022-09-23T12:28:49.855Z,0.80
2022-09-23T12:31:20.810Z,0.60
2022-09-23T12:33:54.599Z,0.70
2022-09-23T12:36:35.340Z,0.60
2022-09-23T12:39:37.236Z,0.90
2022-09-23T12:42:14.596Z,0.52
2022-09-23T12:44:47.539Z,0.68
2022-09-23T12:47:28.078Z,0.80
2022-09-23T12:49:59.092Z,0.80
2022-09-23T12:52:32.940Z,0.98
2022-09-23T12:55:38.484Z,0.98
2022-09-23T12:58:39.429Z,0.82
2022-09-23T13:01:21.451Z,0.93
2022-09-23T13:04:14.306Z,0.80
2022-09-23T13:06:57.007Z,0.73
2022-09-23T13:09:29.187Z,0.60
2022-09-23T13:12:02.586Z,0.90
2022-09-23T13:14:32.793Z,0.90
2022-09-23T13:17:00.184Z,0.90
2022-09-23T13:19:27.054Z,1.00
2022-09-23T13:21:53.861Z,0.82
2022-09-23T13:24:23.447Z,1.10
2022-09-23T13:26:54.171Z,0.80
2022-09-23T13:29:33.180Z,1.00
2022-09-23T13:32:02.758Z,0.85
2022-09-23T13:34:38.578Z,0.80
2022-09-23T13:37:25.125Z,1.02
2022-09-23T13:39:52.262Z,0.80
2022-09-23T13:42:28.789Z,0.80
2022-09-23T13:45:00.398Z,0.88
2022-09-23T13:47:29.688Z,0.95
2022-09-23T13:49:57.039Z,1.10
2022-09-23T13:52:31.831Z,0.95
2022-09-23T13:54:58.882Z,1.52
2022-09-23T13:57:29.235Z,0.90
2022-09-23T14:00:02.152Z,0.85
2022-09-23T14:02:31.242Z,0.98
2022-09-23T14:04:58.920Z,1.25
2022-09-23T14:07:26.640Z,1.17
2022-09-23T14:09:55.761Z,1.30
2022-09-23T14:12:23.063Z,0.88
2022-09-23T14:14:51.913Z,0.93
2022-09-23T14:17:22.916Z,0.93
2022-09-23T14:19:50.538Z,1.23
2022-09-23T14:22:29.325Z,1.35
2022-09-23T14:24:57.464Z,1.00
2022-09-23T14:27:31.352Z,1.38
2022-09-23T14:30:00.046Z,1.38
2022-09-23T14:32:29.473Z,1.00
2022-09-23T14:35:05.389Z,1.25
2022-09-23T14:37:56.862Z,1.20
2022-09-23T14:40:31.961Z,1.40
2022-09-23T14:43:11.376Z,1.15
2022-09-23T14:45:40.844Z,1.23
2022-09-23T14:48:18.529Z,1.30
2022-09-23T14:50:57.888Z,1.05
2022-09-23T14:53:42.939Z,1.40
2022-09-23T14:56:18.227Z,1.75
2022-09-23T14:58:55.764Z,1.70
2022-09-23T15:01:32.252Z,1.60
2022-09-23T15:04:11.179Z,1.50
2022-09-23T15:06:39.536Z,1.25
2022-09-23T15:09:07.452Z,1.70
2022-09-23T15:11:36.063Z,1.35
2022-09-23T15:14:33.129Z,1.40
2022-09-23T15:16:53.693Z,1.30
2022-09-23T15:19:21.810Z,1.20
2022-09-23T15:21:52.984Z,1.00
2022-09-23T15:24:44.779Z,1.20
2022-09-23T15:27:35.429Z,1.48
2022-09-23T15:30:18.954Z,1.38
2022-09-23T15:32:47.046Z,1.17
2022-09-23T15:35:23.703Z,1.10
2022-09-23T15:37:51.670Z,1.20
2022-09-23T15:40:23.172Z,1.00
2022-09-23T15:42:54.004Z,1.10
2022-09-23T15:45:28.975Z,1.10
2022-09-23T15:48:02.196Z,1.10
2022-09-23T15:50:30.175Z,1.02
2022-09-23T15:52:57.323Z,1.20
2022-09-23T15:55:24.222Z,1.30
2022-09-23T15:57:51.210Z,2.35
2022-09-23T16:00:18.214Z,1.40
2022-09-23T16:02:48.408Z,1.30
2022-09-23T16:05:50.935Z,1.55
2022-09-23T16:08:23.940Z,1.50
2022-09-23T16:10:51.641Z,1.52
2022-09-23T16:13:18.800Z,1.60
2022-09-23T16:15:46.122Z,1.60
2022-09-23T16:18:13.685Z,1.35
2022-09-23T16:20:44.592Z,1.98
2022-09-23T16:23:38.717Z,2.10
2022-09-23T16:26:17.066Z,2.17
2022-09-23T16:28:45.887Z,2.10
2022-09-23T16:31:15.959Z,1.60
2022-09-23T16:33:46.962Z,1.92
2022-09-23T16:36:21.909Z,1.70
2022-09-23T16:38:49.100Z,1.65
2022-09-23T16:41:16.011Z,2.55
2022-09-23T16:43:42.957Z,2.67
2022-09-23T16:46:12.812Z,3.90
2022-09-23T16:48:40.885Z,4.22
2022-09-23T16:51:20.482Z,4.18
2022-09-23T16:53:51.786Z,3.25
2022-09-23T16:56:27.315Z,3.13
2022-09-23T16:58:55.216Z,3.70
2022-09-23T17:01:44.029Z,3.95
2022-09-23T17:04:13.214Z,5.32
2022-09-23T17:06:52.441Z,7.20
2022-09-23T17:09:22.718Z,12.52
2022-09-23T17:12:16.169Z,16.27
2022-09-23T17:14:43.749Z,20.27
2022-09-23T17:17:10.644Z,18.65
2022-09-23T17:19:41.300Z,16.77
2022-09-23T17:22:08.205Z,14.98
2022-09-23T17:24:35.130Z,13.75
2022-09-23T17:27:02.029Z,13.57
2022-09-23T17:29:29.154Z,12.43
2022-09-23T17:31:56.182Z,11.45
2022-09-23T17:34:24.109Z,10.82
2022-09-23T17:36:50.998Z,13.82
2022-09-23T17:39:17.944Z,14.88
2022-09-23T17:41:45.548Z,14.25
2022-09-23T17:44:12.901Z,15.10
2022-09-23T17:46:39.876Z,14.10
2022-09-23T17:49:07.975Z,14.23
2022-09-23T17:51:34.973Z,14.32
2022-09-23T17:54:01.868Z,14.45
2022-09-23T17:56:31.595Z,12.68
2022-09-23T17:59:01.897Z,12.10
2022-09-23T18:01:30.090Z,15.48
2022-09-23T18:04:01.991Z,21.40
2022-09-23T18:06:31.770Z,33.95
2022-09-23T18:09:06.841Z,38.35
2022-09-23T18:11:37.973Z,38.50
2022-09-23T18:14:13.374Z,27.55
2022-09-23T18:16:42.368Z,29.10
2022-09-23T18:19:13.701Z,27.25
2022-09-23T18:21:46.823Z,26.48
2022-09-23T18:27:01.354Z,25.67
2022-09-23T18:29:28.669Z,30.23
2022-09-23T18:31:55.784Z,32.65
2022-09-23T18:34:23.680Z,35.08
2022-09-23T18:36:50.644Z,32.28
2022-09-23T18:39:17.823Z,30.20
2022-09-23T18:41:44.694Z,27.15
2022-09-23T18:44:11.740Z,25.52
2022-09-23T18:46:38.611Z,21.30
2022-09-23T18:49:24.121Z,21.20
2022-09-23T18:51:56.384Z,18.63
2022-09-23T18:54:25.343Z,17.67
2022-09-23T18:56:52.839Z,16.20
2022-09-23T18:59:25.911Z,13.43
2022-09-23T19:01:56.634Z,12.70
2022-09-23T19:04:26.444Z,12.32
2022-09-23T19:06:56.359Z,13.20
2022-09-23T19:09:23.769Z,12.68
2022-09-23T19:11:52.215Z,12.82
2022-09-23T19:14:19.511Z,13.40
2022-09-23T19:16:48.988Z,15.02
2022-09-23T19:19:16.050Z,18.30
2022-09-23T19:21:43.270Z,19.52
2022-09-23T19:24:14.399Z,18.92
2022-09-23T19:26:42.217Z,15.52
2022-09-23T19:29:15.634Z,15.65
2022-09-23T19:31:43.846Z,15.25
2022-09-23T19:34:19.035Z,15.80
2022-09-23T19:36:47.722Z,14.75
2022-09-23T19:39:21.040Z,14.55
2022-09-23T19:41:48.892Z,14.60
2022-09-23T19:44:16.598Z,13.25
2022-09-23T19:46:46.259Z,12.57
2022-09-23T19:49:13.770Z,11.60
2022-09-23T19:51:41.108Z,12.40
2022-09-23T19:54:09.249Z,13.45
2022-09-23T19:56:37.402Z,14.25
2022-09-23T19:59:07.327Z,13.13
2022-09-23T20:01:34.521Z,14.02
2022-09-23T20:04:02.091Z,14.73
2022-09-23T20:06:31.273Z,13.88
2022-09-23T20:09:02.183Z,14.45
2022-09-23T20:11:29.851Z,13.82
2022-09-23T20:14:04.090Z,15.18
2022-09-23T20:16:36.953Z,14.90
2022-09-23T20:19:05.761Z,15.60
2022-09-23T20:21:34.251Z,14.32
2022-09-23T20:24:02.237Z,15.10
2022-09-23T20:26:47.732Z,15.65
2022-09-23T20:29:15.024Z,17.02
2022-09-23T20:31:42.017Z,16.98
2022-09-23T20:34:10.729Z,15.60
2022-09-23T20:36:39.231Z,14.65
2022-09-23T20:39:06.864Z,13.98
2022-09-23T20:41:37.694Z,14.15
2022-09-23T20:44:07.980Z,13.88
2022-09-23T20:46:36.018Z,13.45
2022-09-23T20:49:03.705Z,13.15
2022-09-23T20:51:33.308Z,13.70
2022-09-23T20:54:00.777Z,13.73
2022-09-23T20:56:27.905Z,14.52
2022-09-23T20:58:55.227Z,15.90
2022-09-23T21:01:22.394Z,17.15
2022-09-23T21:03:52.320Z,20.20
2022-09-23T21:06:19.632Z,21.00
2022-09-23T21:08:46.823Z,22.48
2022-09-23T21:11:16.287Z,25.90
2022-09-23T21:13:51.650Z,27.15
2022-09-23T21:16:24.582Z,30.10
2022-09-23T21:18:52.353Z,30.35
2022-09-23T21:21:22.243Z,29.40
2022-09-23T21:23:50.302Z,24.77
2022-09-23T21:26:23.740Z,22.02
2022-09-23T21:28:57.845Z,22.65
2022-09-23T21:31:34.477Z,21.75
2022-09-23T21:34:09.439Z,22.13
2022-09-23T21:36:40.989Z,23.00
2022-09-23T21:39:09.396Z,23.33
2022-09-23T21:41:37.213Z,22.45
2022-09-23T21:44:05.064Z,21.30
2022-09-23T21:46:33.873Z,21.70
2022-09-23T21:49:03.556Z,19.80
2022-09-23T21:51:40.478Z,21.50
2022-09-23T21:54:14.151Z,25.98
2022-09-23T21:56:41.944Z,29.43
2022-09-23T21:59:08.926Z,26.23
2022-09-23T22:01:43.644Z,26.27
2022-09-23T22:04:17.797Z,29.70
2022-09-23T22:06:45.843Z,27.47
2022-09-23T22:09:17.043Z,26.65
2022-09-23T22:12:03.189Z,26.95
2022-09-23T22:14:30.694Z,23.25
2022-09-23T22:17:03.850Z,22.63
2022-09-23T22:19:35.693Z,21.37
2022-09-23T22:22:14.256Z,20.67
2022-09-23T22:24:46.744Z,21.20
2022-09-23T22:27:17.143Z,21.17
2022-09-23T22:30:02.628Z,20.03
2022-09-23T22:32:40.563Z,19.43
2022-09-23T22:35:16.615Z,18.53
2022-09-23T22:37:44.243Z,19.07
2022-09-23T22:40:14.395Z,19.53
2022-09-23T22:42:42.332Z,20.43
2022-09-23T22:45:11.155Z,19.43
2022-09-23T22:47:40.320Z,18.90
2022-09-23T22:50:09.477Z,19.63
2022-09-23T22:52:36.753Z,19.77
2022-09-23T22:55:04.760Z,18.80
2022-09-23T22:57:31.669Z,19.30
2022-09-23T22:59:58.557Z,19.77
2022-09-23T23:02:25.454Z,20.63
2022-09-23T23:04:52.341Z,19.60
2022-09-23T23:07:21.259Z,20.43
2022-09-23T23:09:50.805Z,19.63
2022-09-23T23:12:20.253Z,19.60
2022-09-23T23:14:48.909Z,19.93
2022-09-23T23:17:16.407Z,19.60
2022-09-23T23:19:44.012Z,20.33
2022-09-23T23:22:10.949Z,19.43
2022-09-23T23:24:37.861Z,20.17
2022-09-23T23:27:04.913Z,19.27
2022-09-23T23:29:31.874Z,18.93
2022-09-23T23:31:59.792Z,17.90
2022-09-23T23:34:26.746Z,18.33
2022-09-23T23:36:56.826Z,17.33
2022-09-23T23:39:25.043Z,17.80
2022-09-23T23:41:54.873Z,17.93
2022-09-23T23:44:23.872Z,17.90
2022-09-23T23:46:51.199Z,17.83
2022-09-23T23:49:18.183Z,16.97
2022-09-23T23:51:45.114Z,16.73
2022-09-23T23:54:12.670Z,17.40
2022-09-23T23:56:39.583Z,15.60
2022-09-23T23:59:06.543Z,15.10
